Arundel, Maine
Current Conditions -  °F | °C
As of 7:15 PM on Wednesday 22 Oct 2014 (Local Time) from KSFM Reporting Station
Overcast Overcast  
Wind Chill: 38°   Ceiling: 800
Heat Index: 46°   Visibility: 4mi
Dew Point: 43°   Wind: 23mph
Humidity: 87%   Direction: 30°NNE
Pressure: 30"   Gusts: 31mph
Location:  43.4079°N, 70.4735°W
Report Text: KSFM 222315Z AUTO 03020G27KT 4SM OVC008 08/06 A3000 RMK AO1
Loading
Personal Weather Stations






























Interactive Weather Map
Tropical Storm Tracking
New forecast layout! Learn more

10-Day Weather Forecast

Advertisements
Track Severe Weather on mobile